Date,TemperatureHighF,TemperatureAvgF,TemperatureLowF,DewpointHighF,DewpointAvgF,DewpointLowF,HumidityHigh,HumidityAvg,HumidityLow,PressureMaxIn,PressureMinIn,WindSpeedMaxMPH,WindSpeedAvgMPH,GustSpeedMaxMPH,PrecipitationSumIn
2014-1-1,38,24,12,29,17,5,85,76,66,30.79,30.37,18,8,26,0.00
2014-1-2,32,19,4,22,11,-2,79,70,58,30.87,30.78,12,4,14,0.00
2014-1-3,46,32,18,31,21,11,76,66,55,30.79,30.18,24,11,30,0.15
2014-1-4,44,30,17,31,21,12,82,69,58,30.49,30.10,24,10,27,0.04
2014-1-5,17,11,2,13,2,-6,83,66,53,30.99,30.49,21,10,24,0.00
2014-1-6,16,6,-3,-2,-8,-16,65,51,35,31.04,30.79,10,4,15,0.00
2014-1-7,42,25,6,30,15,-4,74,66,60,30.78,30.51,10,5,12,0.00
2014-1-8,43,34,27,28,24,16,74,65,55,30.70,30.51,10,4,10,0.00
2014-1-9,34,31,28,34,27,21,99,83,74,30.68,30.37,14,4,14,0.00
2014-1-10,49,39,34,44,35,29,99,88,66,30.36,30.03,14,7,21,0.01
2014-1-11,55,42,31,37,32,24,88,69,49,30.41,30.19,15,6,19,0.00
2014-1-12,70,49,36,43,34,27,72,58,35,30.32,29.92,21,8,21,0.00
2014-1-13,55,44,34,36,30,26,77,60,38,30.43,30.19,11,6,15,0.00
2014-1-14,46,42,32,33,26,16,67,55,31,30.75,30.29,19,8,24,0.00
2014-1-15,51,37,25,33,26,18,78,65,48,30.75,30.31,9,5,13,0.00
2014-1-16,53,43,32,34,26,14,70,52,23,30.63,30.30,21,9,26,0.00
2014-1-17,47,34,24,25,19,15,68,56,38,30.66,30.45,24,6,24,0.00
2014-1-18,56,42,30,34,27,20,72,55,41,30.61,30.31,24,9,28,0.01
2014-1-19,68,44,28,34,28,20,76,56,26,30.61,30.32,12,4,18,0.00
2014-1-20,56,42,29,36,27,15,74,58,40,30.80,30.29,21,8,34,0.00
2014-1-21,30,20,9,12,2,-6,60,46,25,30.91,30.52,23,6,23,0.00
2014-1-22,43,31,18,28,18,1,71,58,46,30.86,30.52,21,7,24,0.00
2014-1-23,19,12,7,1,-7,-10,52,42,27,31.22,30.87,21,8,26,0.00
2014-1-24,50,28,9,28,11,-8,61,48,36,31.10,30.38,15,7,23,0.00
2014-1-25,59,47,39,41,33,29,72,59,49,30.52,30.31,15,6,21,0.00
2014-1-26,62,45,26,38,30,5,80,57,35,30.64,30.16,32,7,37,0.84
2014-1-27,26,19,14,6,-4,-11,44,35,27,30.83,30.63,0,0,0,0.00
2014-2-10,18,15,11,8,6,5,78,68,56,30.87,30.78,0,0,0,0.00
2014-2-11,29,20,13,12,7,4,67,58,48,30.83,30.63,0,0,0,0.00
2014-2-12,43,29,16,32,21,7,83,71,65,30.62,30.45,0,0,0,0.00
2014-2-13,48,38,26,35,29,21,83,72,59,30.37,30.23,0,0,0,0.00
2014-2-14,59,45,33,43,35,26,85,69,54,30.52,30.18,0,0,0,0.00
2014-2-15,62,44,29,41,33,23,79,66,47,30.50,30.34,0,0,0,0.00
2014-2-16,59,51,35,40,36,27,74,57,47,30.53,30.20,15,6,16,0.02
2014-2-17,62,50,42,40,34,30,78,56,32,30.54,30.16,23,8,27,0.00
2014-2-18,72,52,38,42,34,29,71,52,27,30.46,30.20,16,6,19,0.00
2014-2-19,59,49,35,56,36,27,95,65,41,30.45,29.94,14,3,16,0.00
2014-2-20,60,47,35,58,37,24,96,70,35,30.42,29.76,34,12,34,0.43
2014-2-21,61,43,30,30,24,19,67,50,27,30.44,30.33,21,6,21,0.00
2014-2-22,64,45,33,37,29,22,77,55,30,30.42,30.29,19,4,19,0.00
2014-2-23,44,34,25,29,22,12,75,62,53,30.73,30.44,22,10,22,0.00
2014-2-24,51,34,20,35,23,13,78,64,47,30.73,30.45,11,4,13,0.00
2014-2-25,31,24,17,21,16,5,78,70,55,30.92,30.65,16,9,21,0.00
2014-2-26,38,23,6,17,10,-1,76,59,35,30.89,30.48,14,4,22,0.00
2014-2-27,49,35,17,25,18,8,75,52,29,30.51,30.22,17,5,19,0.00
2014-2-28,48,40,36,40,32,20,90,71,51,30.44,30.07,13,5,17,0.00
2014-3-1,37,22,10,26,16,3,89,80,63,30.74,30.44,21,11,21,0.00
2014-3-2,9,6,3,2,-2,-5,74,68,59,30.92,30.71,22,12,24,0.01
2014-3-3,22,10,-3,1,-6,-12,62,49,27,30.94,30.63,12,4,18,0.00
2014-3-4,36,23,9,25,12,-4,75,64,52,30.63,30.39,13,5,14,0.01
2014-3-5,38,31,26,30,25,21,90,78,68,30.70,30.41,13,5,17,0.00
2014-3-6,46,34,26,37,30,24,99,86,71,30.69,30.36,13,5,17,0.00
2014-3-7,63,45,35,45,36,28,86,73,52,30.49,30.20,21,9,24,0.00
2014-3-8,42,33,28,28,24,18,79,68,53,30.78,30.49,21,9,23,0.00
2014-3-9,64,44,22,39,29,15,73,57,37,30.76,30.48,11,4,21,0.00
2014-3-10,80,58,38,44,34,27,67,46,14,30.47,30.14,9,5,11,0.00
2014-3-11,74,54,37,53,41,30,84,63,38,30.52,29.90,29,12,37,1.30
2014-3-12,59,44,32,37,30,28,83,61,34,30.73,30.53,17,7,24,0.00
2014-3-13,72,54,37,33,28,22,60,39,16,30.60,30.29,19,7,19,0.00
2014-3-14,70,55,42,39,31,23,56,41,17,30.46,30.24,21,6,22,0.00
2014-3-15,74,53,36,56,41,24,83,65,53,30.45,30.19,20,4,22,0.30
2014-3-16,48,38,28,35,26,18,79,63,44,30.68,30.39,27,13,31,0.04
2014-3-17,60,41,26,39,28,17,73,60,45,30.54,29.94,15,5,21,0.00
2014-3-18,65,51,37,44,36,29,75,58,44,30.34,29.81,24,10,25,0.00
2014-3-19,60,45,33,36,31,26,76,60,38,30.65,30.34,21,8,24,0.00
2014-3-20,75,55,34,39,33,26,73,48,21,30.58,30.30,14,6,17,0.00
2014-3-21,67,55,48,42,37,32,65,51,34,30.58,30.13,21,8,29,0.00
2014-3-22,54,41,31,33,25,12,75,55,34,30.88,30.58,22,10,27,0.00
2014-3-23,50,34,22,29,21,16,75,59,40,30.94,30.68,15,6,24,0.00
2014-3-24,55,39,26,34,26,18,76,63,41,30.71,30.57,20,4,24,0.00
2014-3-25,52,39,28,28,24,19,76,56,32,30.87,30.58,14,4,19,0.00
2014-3-26,52,41,33,42,33,22,93,73,53,30.58,30.07,21,10,32,0.08
2014-3-27,72,58,42,53,46,33,84,66,41,30.31,29.87,21,12,26,0.01
2014-3-28,42,38,38,33,31,31,76,76,70,30.33,30.30,10,8,16,0.00
2014-3-29,71,57,30,45,39,27,89,53,34,30.74,30.57,8,4,8,0.00
2014-3-30,77,60,47,46,41,34,66,50,33,30.58,30.19,24,10,30,0.01
2014-3-31,76,64,44,52,41,30,67,46,24,30.49,30.08,22,11,25,0.00
2014-4-1,62,45,32,38,31,23,68,58,40,30.55,30.34,13,5,18,0.00
2014-4-2,77,56,46,56,46,34,96,69,47,30.34,30.05,14,5,19,0.07
2014-4-3,53,48,38,52,44,33,98,88,73,30.43,30.01,17,8,20,0.01
2014-4-4,59,44,30,36,31,26,85,64,37,30.62,30.44,15,6,17,0.00
2014-4-5,68,50,31,40,33,25,80,55,34,30.58,30.40,14,4,16,0.00
2014-4-6,62,52,45,47,42,35,91,68,53,30.48,30.28,10,2,15,0.02
2014-4-7,64,52,41,48,41,35,84,67,48,30.43,30.23,24,6,29,0.01
2014-4-8,68,53,39,41,35,28,79,54,26,30.58,30.43,22,8,26,0.00
2014-4-9,85,62,42,50,38,27,60,44,28,30.57,30.25,17,6,22,0.00
2014-4-10,76,64,51,48,44,38,69,50,33,30.42,30.15,24,8,26,0.00
2014-4-11,84,66,48,56,45,34,67,48,34,30.48,30.31,11,4,12,0.00
2014-4-12,89,71,58,64,58,52,88,64,42,30.33,30.00,23,8,24,0.00
2014-4-13,75,57,35,60,47,29,81,71,60,30.34,29.93,22,10,29,0.04
2014-4-14,50,39,31,30,25,18,94,60,30,30.66,30.33,21,10,27,0.02
2014-4-15,66,48,28,34,25,20,69,45,21,30.65,30.38,11,5,14,0.00
2014-4-16,75,58,44,43,35,28,63,43,25,30.53,30.27,20,9,27,0.01
2014-4-17,54,43,38,41,34,30,86,70,58,30.75,30.54,14,6,17,0.00
2014-4-18,74,53,32,52,41,31,99,68,43,30.73,30.52,14,3,17,0.00
2014-4-19,83,65,49,59,48,40,74,57,42,30.58,30.44,20,6,21,0.00
2014-4-20,75,64,56,61,53,48,75,66,57,30.53,30.42,11,5,14,0.01
2014-4-21,81,66,54,60,52,39,95,65,37,30.53,30.42,21,5,24,0.00
2014-4-22,81,62,43,44,39,32,66,44,24,30.58,30.38,11,3,12,0.00
2014-4-23,87,70,55,59,49,40,58,48,35,30.38,30.00,17,8,30,0.00
2014-4-24,71,62,50,57,48,38,86,62,37,30.37,30.03,17,7,26,0.05
2014-4-25,84,65,44,51,43,35,72,49,27,30.40,30.22,17,5,19,0.00
2014-4-26,88,73,58,64,54,42,62,51,44,30.26,29.93,20,8,21,0.00
2014-4-27,82,72,60,62,52,38,84,54,22,29.98,29.69,17,8,24,0.02
2014-4-28,63,56,46,44,40,38,71,57,43,30.08,29.80,31,13,33,0.18
2014-4-29,51,46,42,39,37,36,84,72,60,30.44,30.06,24,11,27,0.06
2014-4-30,62,49,39,38,34,30,77,58,36,30.54,30.44,20,8,22,0.00
2014-5-1,65,52,38,41,35,30,71,54,39,30.54,30.44,14,6,21,0.00
2014-5-2,76,57,35,40,34,28,76,46,22,30.48,30.32,11,3,15,0.00
2014-5-3,94,71,46,48,40,32,62,36,15,30.39,30.26,8,3,14,0.00
2014-5-4,102,80,57,54,44,36,58,32,11,30.32,30.09,10,5,21,0.00
2014-5-5,95,78,63,58,49,40,62,38,23,30.16,30.10,10,3,11,0.00
2014-5-6,101,79,59,63,56,36,75,51,11,30.15,29.92,11,5,16,0.00
2014-5-7,95,79,65,67,61,58,77,56,37,30.14,30.02,14,5,19,0.00
2014-5-8,84,74,60,62,55,44,76,55,33,30.31,30.12,11,6,17,0.00
2014-5-9,81,64,49,52,45,40,72,53,30,30.41,30.27,11,4,14,0.00
2014-5-10,96,72,56,64,56,46,88,60,28,30.30,30.10,12,3,18,0.53
2014-5-11,89,78,66,64,62,57,87,61,44,30.19,29.99,23,8,23,0.00
2014-5-12,74,57,47,65,49,39,85,75,66,30.60,30.09,16,7,18,0.25
2014-5-13,66,54,45,45,39,37,75,59,39,30.73,30.59,14,6,19,0.00
2014-5-14,71,57,44,44,39,36,75,53,32,30.74,30.59,10,3,15,0.00
2014-5-15,68,56,45,42,39,33,78,56,34,30.67,30.56,14,4,14,0.00
2014-5-16,69,52,40,48,40,35,83,66,45,30.59,30.42,7,2,11,0.05
2014-5-17,70,55,41,48,42,38,92,65,43,30.62,30.54,7,2,10,0.01
2014-5-18,79,64,48,60,51,39,87,64,50,30.59,30.34,19,5,24,0.04
2014-5-19,90,76,64,64,59,54,72,57,42,30.34,30.12,17,8,23,0.00
2014-5-20,98,81,67,66,60,56,68,51,34,30.28,30.18,13,5,15,0.00
2014-5-21,96,80,63,67,61,54,76,54,37,30.44,30.29,8,2,11,0.00
2014-5-22,90,76,64,66,61,57,81,61,44,30.55,30.43,9,2,13,0.46
2014-5-23,76,69,64,66,63,58,94,82,66,30.55,30.48,8,2,11,0.93
2014-5-24,84,72,65,66,63,60,95,75,51,30.52,30.38,8,2,16,0.15
2014-5-25,84,69,64,67,62,58,91,79,52,30.47,30.38,10,3,17,0.19
2014-5-26,84,72,63,66,61,57,94,72,46,30.48,30.38,12,3,13,0.01
2014-5-27,86,71,62,65,60,58,86,70,47,30.45,30.38,5,2,8,0.00
2014-5-28,91,76,61,66,61,58,90,65,41,30.47,30.38,10,2,10,0.00
2014-5-29,92,78,65,67,62,58,89,61,41,30.44,30.34,10,2,11,0.00
2014-5-30,88,76,65,66,62,59,90,64,46,30.49,30.39,8,2,9,0.00
2014-5-31,88,76,64,66,62,60,90,65,46,30.51,30.37,11,2,12,0.00
2014-6-1,89,77,67,66,63,58,88,64,45,30.42,30.16,15,4,20,0.57
2014-6-2,92,77,66,67,63,60,87,64,44,30.46,30.25,9,2,10,0.01
2014-6-3,91,81,71,68,66,63,84,61,44,30.45,30.15,14,4,17,0.00
2014-6-4,97,83,72,71,66,61,71,56,43,30.25,30.14,14,4,17,0.00
2014-6-5,89,77,64,68,64,60,89,67,45,30.35,30.09,15,4,19,0.66
2014-6-6,83,72,67,66,63,61,88,74,54,30.43,30.25,8,2,13,0.04
2014-6-7,83,71,63,66,59,56,90,68,50,30.46,30.19,16,4,17,1.70
2014-6-8,82,70,63,61,58,56,81,67,48,30.50,30.34,7,3,11,0.00
2014-6-9,80,67,63,63,58,53,88,73,50,30.35,30.09,9,3,14,0.27
2014-6-10,81,69,62,60,58,55,87,68,46,30.34,30.20,11,4,15,0.02
2014-6-11,90,74,58,65,60,55,90,63,41,30.35,30.17,8,2,15,0.00
2014-6-12,78,70,61,61,57,51,87,66,47,30.52,30.18,12,4,17,0.53
2014-6-13,85,69,54,60,54,50,89,61,41,30.57,30.35,9,3,17,0.00
2014-6-14,90,78,66,66,60,54,69,56,42,30.36,30.07,15,6,21,0.00
2014-6-15,85,74,62,67,62,55,89,68,51,30.38,30.07,15,4,24,0.97
2014-6-16,91,81,73,69,66,63,82,61,47,30.39,30.20,15,6,21,0.00
2014-6-17,94,83,75,70,66,62,67,56,45,30.28,30.20,14,6,24,0.00
2014-6-18,92,83,74,69,65,63,71,56,45,30.34,30.26,11,5,16,0.00
2014-6-19,94,81,73,68,64,58,70,56,41,30.48,30.30,7,3,11,0.00
2014-6-20,95,83,70,70,65,61,85,58,40,30.53,30.39,9,2,11,0.00
2014-6-21,96,83,71,69,63,60,71,53,37,30.46,29.86,9,2,9,0.00
2014-6-22,96,80,65,70,64,57,87,58,41,30.01,29.77,19,3,29,0.52
2014-6-23,88,75,66,64,62,58,88,66,44,30.04,29.88,8,2,10,0.07
2014-6-24,87,72,63,69,62,58,89,73,46,30.10,30.01,11,2,11,1.78
2014-6-25,90,74,61,65,61,57,90,66,44,30.07,29.95,10,2,10,0.00
2014-6-26,84,75,67,66,64,58,84,69,54,30.03,29.83,8,3,14,0.17
2014-6-27,86,77,72,67,64,63,75,65,52,29.87,29.73,17,6,21,0.04
2014-6-28,83,73,65,66,62,57,81,68,50,29.96,29.73,14,3,20,0.07
2014-6-29,89,78,69,70,67,63,88,70,51,30.02,29.85,11,3,19,0.01
2014-6-30,96,84,74,71,67,64,74,57,45,29.87,29.75,14,4,16,0.08
2014-7-1,91,77,64,67,62,56,85,62,39,30.08,29.89,11,2,20,1.72
2014-7-2,82,71,58,56,54,50,83,55,41,30.22,30.10,11,4,19,0.00
2014-7-3,64,58,54,53,50,48,85,74,61,30.26,30.22,3,0,4,0.00
2014-7-4,89,81,65,64,61,53,66,50,42,30.27,30.13,11,4,14,0.00
2014-7-5,95,82,71,70,65,62,74,56,42,30.17,29.96,11,4,16,0.00
2014-7-6,103,85,73,71,65,61,70,52,35,30.00,29.87,8,3,14,0.00
2014-7-7,102,87,70,72,64,58,68,48,33,29.92,29.78,9,3,10,0.00
2014-7-8,92,78,69,62,58,54,63,51,34,30.09,29.84,14,4,14,0.00
2014-7-9,96,79,66,66,59,55,73,53,37,30.12,29.98,8,2,11,0.00
2014-7-10,85,72,64,64,61,57,87,68,48,30.13,29.98,11,4,17,1.50
2014-7-11,97,81,68,70,64,61,85,58,39,30.10,30.00,9,3,11,0.00
2014-7-12,97,83,72,68,62,57,62,50,37,30.11,29.99,8,3,9,0.00
2014-7-13,92,80,74,69,61,55,70,53,46,30.07,30.02,11,4,14,0.00
2014-7-14,97,79,69,68,62,52,84,59,38,30.19,30.01,10,2,12,0.05
2014-7-15,85,73,63,56,34,12,63,31,10,30.23,30.06,8,1,9,0.00
2014-7-16,69,64,59,56,52,49,83,66,57,30.12,30.05,4,1,8,0.06
2014-7-17,69,64,59,58,56,54,86,77,61,30.11,30.06,8,1,8,0.15
2014-7-18,81,68,60,58,56,53,88,68,46,30.12,30.03,12,2,12,0.01
2014-7-19,85,71,58,62,58,54,87,65,46,30.07,29.99,10,2,10,0.00
2014-7-20,93,77,64,69,62,56,80,61,44,30.00,29.87,12,4,14,0.52
2014-7-21,98,84,72,71,67,65,81,59,39,30.01,29.93,7,3,14,0.00
2014-7-22,102,87,74,72,68,65,80,56,37,30.11,29.99,7,2,8,0.00
2014-7-23,92,81,72,68,64,58,77,56,40,30.21,30.08,14,2,14,0.00
2014-7-24,93,79,66,68,62,58,84,58,42,30.15,29.96,10,3,14,0.00
2014-7-25,103,87,73,69,64,59,69,49,29,29.99,29.81,11,4,12,0.00
2014-7-26,108,89,75,69,62,59,56,43,23,29.93,29.83,7,2,9,0.00
2014-7-27,92,80,71,67,61,53,67,52,31,30.19,29.93,13,3,21,0.04
2014-7-28,89,75,62,62,56,51,73,53,37,30.32,30.17,8,2,10,0.00
2014-7-29,93,77,62,64,57,51,70,51,36,30.22,30.06,10,2,11,0.00
2014-7-30,72,68,62,62,58,56,85,71,59,30.16,30.08,7,1,8,0.00
2014-7-31,87,71,58,60,56,51,89,62,34,30.17,30.07,5,1,8,0.00
2014-8-1,95,78,63,63,57,51,75,51,27,30.11,30.03,9,2,11,0.00
2014-8-2,93,77,64,64,60,56,85,58,34,30.17,30.09,10,2,12,0.00
2014-8-3,94,80,67,63,58,54,69,49,33,30.18,30.06,6,2,10,0.00
2014-8-4,97,81,69,64,59,56,65,48,32,30.14,30.03,5,2,10,0.26
2014-8-5,96,82,69,65,60,56,69,48,34,30.11,30.01,6,2,11,0.00
2014-8-6,99,84,69,66,61,56,73,49,31,30.04,29.85,8,3,11,0.00
2014-8-7,91,79,68,67,63,57,81,58,42,29.99,29.89,10,3,21,0.66
2014-8-8,94,79,69,66,63,60,82,60,39,30.02,29.93,11,2,15,0.65
2014-8-9,95,80,70,69,64,62,83,62,40,30.09,29.96,7,2,13,0.00
2014-8-10,88,76,68,67,62,58,84,63,42,30.11,29.98,13,3,22,0.91
2014-8-11,87,76,67,63,58,51,84,57,32,30.18,30.10,14,3,17,0.00
2014-8-12,87,72,58,56,53,50,81,54,33,30.22,30.08,6,2,11,0.00
2014-8-13,90,74,60,60,54,49,68,51,35,30.19,30.06,8,2,9,0.00
2014-8-14,93,78,66,63,58,54,68,52,36,30.10,29.95,10,3,15,0.00
2014-8-15,95,80,70,64,60,58,67,51,34,29.99,29.86,9,2,11,0.01
2014-8-16,96,82,71,67,61,58,65,50,37,29.94,29.87,8,2,11,0.00
2014-8-17,99,82,68,67,63,59,81,55,33,30.02,29.90,5,1,5,0.00
2014-8-18,95,79,67,68,61,55,81,56,37,30.08,29.82,22,3,24,0.48
2014-8-19,99,85,72,67,59,54,56,43,32,29.92,29.81,8,3,11,0.00
2014-8-20,97,84,71,66,61,58,70,48,35,29.91,29.83,11,4,15,0.00
2014-8-21,100,86,75,67,62,58,58,45,32,29.95,29.87,8,4,13,0.00
2014-8-22,103,88,76,69,62,58,58,44,31,29.96,29.88,9,3,13,0.00
2014-8-23,101,86,71,63,56,45,54,38,15,29.94,29.84,11,4,11,0.00
2014-8-24,103,87,75,64,58,54,50,38,24,29.94,29.84,11,4,17,0.00
2014-8-25,105,87,72,68,61,57,62,43,26,30.01,29.91,11,3,13,0.00
2014-8-26,97,80,69,66,60,56,67,52,35,30.15,30.02,11,2,14,0.01
2014-8-27,95,82,71,65,60,57,72,49,35,30.15,30.00,10,2,11,0.00
2014-8-28,79,75,68,64,59,56,74,58,48,30.01,29.89,14,2,14,0.47
2014-8-29,89,76,68,63,59,55,75,58,41,29.94,29.87,9,2,11,0.00
2014-8-30,97,79,65,63,59,54,82,54,27,30.00,29.90,4,1,6,0.00
2014-8-31,98,82,69,64,60,55,69,49,32,29.93,29.68,14,4,18,0.00
2014-9-1,87,75,65,63,58,53,72,56,45,29.93,29.79,12,5,21,0.02
2014-9-2,90,78,70,63,61,58,75,57,37,30.04,29.91,8,2,14,0.00
2014-9-3,97,83,71,66,62,59,68,51,33,29.98,29.83,13,4,15,0.00
2014-9-4,98,85,75,63,59,55,55,42,28,30.00,29.87,11,5,16,0.00
2014-9-5,81,72,60,58,53,47,67,52,41,30.27,30.00,14,6,21,0.04
2014-9-6,80,66,56,54,49,43,80,58,32,30.30,30.20,11,4,12,0.12
2014-9-7,86,66,50,53,47,44,84,55,29,30.25,30.06,8,1,8,0.00
2014-9-8,91,74,58,62,56,47,82,56,35,30.09,29.88,8,3,14,0.00
2014-9-9,94,87,83,61,59,57,45,39,33,29.69,29.65,13,7,17,0.00
2014-9-10,83,71,62,62,55,51,74,57,43,30.03,29.62,14,5,21,0.00
2014-9-11,75,63,57,52,47,44,68,57,42,30.24,30.04,13,6,17,0.00
2014-9-12,59,54,50,46,41,35,77,63,55,30.44,30.22,14,6,17,0.00
2014-9-13,72,54,38,41,37,31,85,54,30,30.44,30.22,8,2,11,0.00
2014-9-14,84,65,48,56,48,39,84,57,37,30.25,30.05,9,3,17,0.00
2014-9-15,85,71,64,59,54,49,70,56,41,30.24,30.04,14,5,17,0.00
2014-9-16,84,68,59,58,50,44,71,54,41,30.25,30.01,7,3,11,0.00
2014-9-17,100,79,65,62,59,54,81,55,24,30.02,29.82,5,2,8,0.00
2014-9-18,90,75,67,62,56,52,75,54,28,30.03,29.88,14,4,22,0.00
2014-9-19,92,75,63,62,58,55,81,58,33,30.03,29.93,11,3,14,0.00
2014-9-20,95,78,67,62,59,54,77,56,31,30.06,29.96,11,2,13,0.01
2014-9-21,84,72,56,62,48,38,73,45,22,30.28,30.07,12,4,15,0.00
2014-9-22,84,65,48,48,43,39,80,49,22,30.34,30.20,6,1,10,0.00
2014-9-23,83,68,56,52,47,44,73,49,31,30.21,30.07,13,4,20,0.27
2014-9-24,81,66,57,55,51,48,80,62,38,30.20,30.11,11,3,13,0.33
2014-9-25,87,70,57,56,49,46,67,49,31,30.23,30.14,4,1,9,0.00
2014-9-26,86,70,56,56,50,46,77,52,31,30.19,30.09,6,2,11,0.00
2014-9-27,87,71,58,55,51,48,77,51,32,30.15,30.03,12,2,14,0.00
2014-9-28,87,70,56,56,50,44,80,52,26,30.15,30.07,8,1,11,0.00
2014-9-29,88,72,58,59,53,49,82,55,30,30.11,29.93,6,2,11,0.00
2014-9-30,86,73,60,57,53,49,70,51,35,29.97,29.73,14,4,17,0.00
2014-10-1,91,77,66,60,55,42,75,49,29,29.78,29.68,11,2,13,0.00
2014-10-2,70,64,54,58,49,42,75,58,45,29.99,29.70,15,4,17,0.01
2014-10-3,63,53,47,44,32,22,70,47,22,30.30,29.99,17,6,26,0.00
2014-10-4,74,56,40,36,28,20,55,38,15,30.21,29.89,8,2,9,0.00
2014-10-5,84,66,50,44,37,28,55,36,14,29.92,29.83,12,4,24,0.01
2014-10-6,85,68,55,46,41,37,58,41,20,29.93,29.76,11,3,14,0.00
2014-10-7,90,71,54,47,43,39,60,39,20,30.03,29.79,8,2,11,0.00
2014-10-8,85,71,58,60,51,43,63,51,37,30.06,29.93,9,2,13,0.00
2014-10-9,86,72,60,59,56,52,79,59,36,29.99,29.90,10,3,14,0.07
2014-10-10,60,52,47,54,44,36,83,74,64,30.19,29.97,19,7,19,0.63
2014-10-11,64,52,45,37,36,33,71,55,32,30.21,30.03,11,3,13,0.00
2014-10-12,66,54,42,48,42,35,86,66,44,30.03,29.65,11,3,23,0.05
2014-10-13,62,56,52,51,43,34,83,65,42,29.90,29.64,21,8,24,1.05
2014-10-14,69,57,48,38,34,31,57,43,25,30.07,29.90,16,6,20,0.00
2014-10-15,74,57,43,42,36,31,67,48,24,30.14,29.94,5,1,8,0.00
2014-10-16,80,62,49,47,43,38,66,51,28,29.93,29.79,9,1,11,0.00
2014-10-17,71,58,49,43,40,35,65,52,35,30.14,29.91,10,3,13,0.00
2014-10-18,67,53,43,41,38,36,79,60,36,30.27,30.14,8,2,10,0.00
2014-10-19,72,57,44,48,43,37,84,62,39,30.19,30.02,6,1,8,0.00
2014-10-20,81,63,52,55,46,39,83,56,24,30.10,30.02,8,1,10,0.00
2014-10-21,82,64,49,54,48,41,83,59,35,30.12,30.02,14,2,14,0.00
2014-10-22,79,66,55,56,50,46,83,59,35,30.15,30.05,11,2,14,0.00
2014-10-23,76,65,59,53,51,48,79,61,45,30.13,30.05,3,1,8,0.00
2014-10-24,82,67,56,56,53,51,85,64,38,30.09,30.01,5,1,8,0.01
2014-10-25,90,69,54,61,52,48,85,59,28,30.10,29.97,5,1,9,0.00
2014-10-26,88,73,58,54,48,43,72,45,27,29.97,29.67,11,4,17,0.00
2014-10-27,71,66,56,47,42,34,50,42,34,30.02,29.60,12,4,17,0.00
2014-10-28,70,55,42,39,33,25,78,48,18,30.21,30.02,9,1,12,0.00
2014-10-29,56,54,52,31,30,29,42,38,36,30.11,30.08,2,0,3,0.00
2014-10-30,73,58,48,36,32,28,53,38,22,30.29,30.04,17,5,20,0.00
2014-10-31,52,43,28,33,22,11,65,46,23,30.51,30.29,14,6,26,0.00
2014-11-1,55,41,26,21,15,12,61,37,20,30.43,30.18,11,4,14,0.00
2014-11-2,62,52,44,40,31,21,55,44,36,30.17,29.99,18,7,19,0.00
2014-11-3,68,57,49,52,42,34,74,58,48,30.16,29.93,13,6,19,0.07
2014-11-4,53,47,41,36,34,32,75,61,48,30.29,30.15,11,2,11,0.00
2014-11-5,70,50,34,38,30,25,85,51,18,30.29,30.13,8,2,9,0.00
2014-11-6,61,50,40,29,24,17,54,39,21,30.44,30.28,14,4,14,0.00
2014-11-7,71,50,37,40,30,21,58,47,31,30.28,29.84,13,3,13,0.00
2014-11-8,59,49,38,35,28,18,58,44,24,30.29,30.03,17,5,19,0.00
2014-11-9,68,52,37,39,33,23,65,50,33,30.08,29.63,10,2,10,0.00
2014-11-10,75,52,30,41,33,15,63,49,23,29.96,29.39,25,9,32,0.50
2014-11-11,34,27,20,14,4,-2,51,38,23,30.44,29.97,28,10,30,0.02
2014-11-12,26,21,15,3,-5,-9,47,33,22,30.59,30.44,12,7,17,0.00
2014-11-13,31,22,14,3,-1,-7,47,37,24,30.63,30.48,14,5,16,0.00
2014-11-14,37,27,14,8,3,0,59,37,22,30.48,30.24,9,2,14,0.00
2014-11-15,40,33,24,20,13,5,54,43,37,30.23,30.01,8,3,21,0.00
2014-11-16,31,20,14,17,5,-1,66,51,31,30.29,30.14,16,6,17,0.00
2014-11-17,30,20,14,6,0,-5,55,42,24,30.38,30.25,12,4,14,0.00
2014-11-18,40,25,7,24,10,-4,66,54,41,30.35,30.02,7,2,10,0.02
2014-11-19,49,38,26,25,19,12,60,48,34,30.21,30.01,11,4,17,0.00
2014-11-20,52,36,21,23,17,8,64,47,29,30.20,30.08,5,1,11,0.00
2014-11-21,44,39,30,40,30,17,86,72,53,30.17,30.04,4,1,4,0.00
2014-11-22,61,50,42,52,44,38,87,78,59,30.06,29.65,8,3,14,0.01
2014-11-23,58,49,41,48,39,22,81,67,46,29.73,29.42,28,7,32,0.31
2014-11-24,51,40,33,22,16,11,50,39,22,30.19,29.74,20,7,23,0.00
2014-11-25,50,39,26,24,18,10,56,43,28,30.26,29.97,8,3,10,0.00
2014-11-26,48,41,30,26,21,16,55,45,32,30.45,29.96,18,8,25,0.00
2014-11-27,46,34,20,20,14,10,67,46,24,30.52,30.16,9,3,15,0.00
2014-11-28,61,48,36,36,28,18,58,46,32,30.15,29.77,10,4,14,0.00
2014-11-29,71,53,37,35,32,21,83,50,16,29.76,29.62,8,3,12,0.00
2014-11-30,51,32,21,35,11,-6,67,43,26,30.43,29.61,23,10,26,0.00
2014-12-1,32,22,16,-1,-6,-11,35,28,21,30.63,30.43,18,7,21,0.00
2014-12-2,43,29,17,10,3,-7,46,33,22,30.43,30.07,11,3,13,0.00
2014-12-3,46,35,23,19,13,8,57,43,23,30.34,30.13,8,2,11,0.00
2014-12-4,52,43,37,40,29,19,82,58,45,30.21,30.04,5,2,7,0.09
2014-12-5,55,46,40,44,40,37,88,80,59,30.31,30.00,8,2,12,0.35
2014-12-6,42,40,37,38,33,25,90,78,60,30.54,30.31,10,4,11,0.01
2014-12-7,47,41,38,43,38,34,90,87,82,30.47,30.22,8,4,14,0.00
2014-12-8,58,46,35,42,32,26,89,61,31,30.34,30.24,9,3,11,0.00
2014-12-9,49,39,30,28,23,20,67,55,40,30.43,30.27,14,4,14,0.00
2014-12-10,46,38,32,35,27,21,77,63,53,30.27,30.15,11,2,11,0.00
2014-12-11,49,44,38,36,32,30,71,63,55,30.24,30.17,4,1,7,0.00
2014-12-12,50,48,45,44,41,36,87,77,65,30.27,30.18,8,3,10,0.00
2014-12-13,55,51,48,52,48,44,89,88,88,30.20,29.95,14,5,17,0.02
2014-12-14,58,56,50,52,49,39,89,78,64,29.95,29.59,15,8,18,0.38
2014-12-15,54,41,33,43,28,18,73,60,51,30.13,29.57,21,11,33,0.02
2014-12-16,40,32,27,21,18,15,69,55,46,30.36,30.12,15,6,22,0.00
2014-12-17,33,30,28,26,20,15,84,66,55,30.32,30.14,7,2,9,0.00
2014-12-18,36,32,30,29,26,24,85,77,62,30.26,30.13,6,1,8,0.06
2014-12-19,36,33,30,30,26,24,80,74,64,30.27,30.17,5,1,6,0.06
2014-12-20,49,40,32,35,31,27,86,70,55,30.18,30.08,14,4,15,0.06
2014-12-21,44,42,40,40,36,32,85,79,70,30.07,29.67,14,6,15,0.04
2014-12-22,52,46,40,43,35,24,88,69,46,29.69,29.57,11,4,17,0.02
2014-12-23,40,37,35,25,22,20,56,54,52,29.76,29.69,14,8,23,0.00
2014-12-24,44,36,30,26,21,17,70,55,42,29.99,29.82,19,5,19,0.00
2014-12-25,56,42,32,27,22,17,55,45,31,29.81,29.62,24,8,24,0.04
2014-12-26,46,36,32,28,25,22,74,63,45,30.16,29.77,11,5,14,0.00
2014-12-27,35,28,20,22,13,8,65,52,37,30.35,30.15,14,5,17,0.00